Aérodrome :
LOGIN :

S'inscrire | Disclaimer

   EN    FR    IT 

 










Légende :    VFR   VFR Marginal   IFR   IFR Intensif   IFR Très Intensif
Visi : 
Plafond : 
>= 8 km
>= 3000ft
5 à 8 km
1000 à 3000 ft
1500m à 5 km
500 à 1000 ft
800 à 1500m
200 à 500 ft
< 800m
< 200 ft
Symboles :   Orages  Brouillard  Fortes neiges  Fortes précipitations  Vent > 20 kt
SIGMETs :   Divers  Orages  Givrage  Turbulence  Onde Orograph.  Cendres Volcan.






- Altitude de l'aérodrome : 204 ft
- Code IATA : AGF


LFBA - Agen

DERNIER METAR :
  • 032100Z AUTO VRB03KT CAVOK 23/16 Q1019

METARs EXPIRÉS :
  • 032030Z AUTO 23008KT CAVOK 23/16 Q1020
  • 032000Z AUTO 23005KT CAVOK 23/16 Q1019 TEMPO 29015G25KT SHRA BECMG FEW065CB BKN100
  • 031930Z AUTO 24007KT CAVOK 24/17 Q1018 TEMPO 29015G25KT SHRA BECMG FEW065CB BKN100
  • 031900Z AUTO 33006KT CAVOK 24/17 Q1017 TEMPO 29015G25KT SHRA BECMG FEW065CB BKN100
  • 031830Z AUTO 36005G15KT 290V060 9999 FEW045/// SCT200/// ///CB 24/18 Q1016 TEMPO 29015G25KT SHRA
  • 030500Z AUTO 26003KT 230V290 CAVOK 17/13 Q1020

TAF AMD TAF LFBA
Valide du 03 à 17h jusqu'au 04 à 00h UTC


031715Z 0317/0324 VRB03KT 9999 FEW065CB BKN100
TEMPO 0317/0324 29015G25KT SHRA
PROB40
TEMPO 0317/0319 VRB20G35KT 4000 TSRA



MET'MAP, la Météo Aéronautique d'un coup d'oeil ! - Copyright ORBIFLY Décembre 2007 - Disclaimer

ORBIFLY MET'MAP TEAM :

Programmation & Développement : Alexandra Zaïnal
Sur une idée originale de : Baudouin d'Aumeries
Soutien technique & logistique : Manuel Goepfert
Assistance : Marc-Olivier Méhu




SOURCES & CREDITS :

   NOAA